createdAt,value
2023-04-21T00:00:21.448Z,14.27
2023-04-21T00:02:49.899Z,13.35
2023-04-21T00:05:18.270Z,13.45
2023-04-21T00:07:47.631Z,15.05
2023-04-21T00:10:15.595Z,13.75
2023-04-21T00:12:43.426Z,13.25
2023-04-21T00:15:12.784Z,13.07
2023-04-21T00:17:40.816Z,12.75
2023-04-21T00:20:10.590Z,11.95
2023-04-21T00:22:38.458Z,13.48
2023-04-21T00:25:09.029Z,12.98
2023-04-21T00:27:36.984Z,12.10
2023-04-21T00:30:06.924Z,12.88
2023-04-21T00:32:34.899Z,12.68
2023-04-21T00:35:03.277Z,13.90
2023-04-21T00:37:31.432Z,13.60
2023-04-21T00:39:59.759Z,13.65
2023-04-21T00:42:29.062Z,12.93
2023-04-21T00:44:57.052Z,13.65
2023-04-21T00:47:25.556Z,13.15
2023-04-21T00:49:53.643Z,14.00
2023-04-21T00:52:21.579Z,13.75
2023-04-21T00:54:49.559Z,12.60
2023-04-21T00:57:17.996Z,14.25
2023-04-21T00:59:47.361Z,13.27
2023-04-21T01:02:16.550Z,13.98
2023-04-21T01:04:45.680Z,13.65
2023-04-21T01:07:13.678Z,12.90
2023-04-21T01:09:42.954Z,14.23
2023-04-21T01:12:12.668Z,14.38
2023-04-21T01:14:41.880Z,12.82
2023-04-21T01:17:13.108Z,14.98
2023-04-21T01:19:43.619Z,13.52
2023-04-21T01:22:15.351Z,13.30
2023-04-21T01:24:45.211Z,13.23
2023-04-21T01:27:15.650Z,14.35
2023-04-21T01:29:46.729Z,13.23
2023-04-21T01:32:17.657Z,12.85
2023-04-21T01:34:46.618Z,12.52
2023-04-21T01:37:19.199Z,13.25
2023-04-21T01:39:52.227Z,14.77
2023-04-21T01:42:21.224Z,13.48
2023-04-21T01:44:49.599Z,12.73
2023-04-21T01:47:19.119Z,13.93
2023-04-21T01:49:46.951Z,12.73
2023-04-21T01:52:16.163Z,12.15
2023-04-21T01:54:44.073Z,14.02
2023-04-21T01:57:12.100Z,13.57
2023-04-21T01:59:41.146Z,13.18
2023-04-21T02:02:09.986Z,12.98
2023-04-21T02:04:38.162Z,13.85
2023-04-21T02:07:07.100Z,13.15
2023-04-21T02:09:36.549Z,12.27
2023-04-21T02:12:04.939Z,13.00
2023-04-21T02:14:32.745Z,12.65
2023-04-21T02:17:03.378Z,13.02
2023-04-21T02:19:31.252Z,13.98
2023-04-21T02:21:59.037Z,13.07
2023-04-21T02:24:27.164Z,14.27
2023-04-21T02:26:57.597Z,13.32
2023-04-21T02:29:25.699Z,13.85
2023-04-21T02:32:02.986Z,14.45
2023-04-21T02:34:33.278Z,13.55
2023-04-21T02:37:01.430Z,14.13
2023-04-21T02:39:29.252Z,14.77
2023-04-21T02:41:58.504Z,14.55
2023-04-21T02:44:26.373Z,13.25
2023-04-21T02:46:54.291Z,13.40
2023-04-21T02:49:22.136Z,13.60
2023-04-21T02:51:50.343Z,14.30
2023-04-21T02:54:18.239Z,14.07
2023-04-21T02:56:46.239Z,13.60
2023-04-21T02:59:16.736Z,14.75
2023-04-21T03:01:44.729Z,14.18
2023-04-21T03:04:13.098Z,13.60
2023-04-21T03:06:41.100Z,12.73
2023-04-21T03:09:09.119Z,12.73
2023-04-21T03:11:36.918Z,12.98
2023-04-21T03:14:04.719Z,12.88
2023-04-21T03:16:34.222Z,13.60
2023-04-21T03:19:02.246Z,13.43
2023-04-21T03:21:31.401Z,13.25
2023-04-21T03:23:59.128Z,13.30
2023-04-21T03:26:26.961Z,13.70
2023-04-21T03:28:54.641Z,12.30
2023-04-21T03:31:22.851Z,13.80
2023-04-21T03:33:52.007Z,12.93
2023-04-21T03:36:19.836Z,13.80
2023-04-21T03:38:47.905Z,13.25
2023-04-21T03:41:15.729Z,12.93
2023-04-21T03:43:43.598Z,13.27
2023-04-21T03:46:19.501Z,12.48
2023-04-21T03:48:47.851Z,12.10
2023-04-21T03:51:17.170Z,12.85
2023-04-21T03:53:45.033Z,11.73
2023-04-21T03:56:12.818Z,11.13
2023-04-21T03:58:40.750Z,11.40
2023-04-21T04:01:08.904Z,11.80
2023-04-21T04:03:36.941Z,11.48
2023-04-21T04:06:05.209Z,11.55
2023-04-21T04:08:34.451Z,10.90
2023-04-21T04:11:02.221Z,11.23
2023-04-21T04:13:29.985Z,10.88
2023-04-21T04:15:58.978Z,10.68
2023-04-21T04:18:26.888Z,10.90
2023-04-21T04:20:54.814Z,10.95
2023-04-21T04:23:23.295Z,11.10
2023-04-21T04:25:52.458Z,10.35
2023-04-21T04:28:22.772Z,10.07
2023-04-21T04:30:50.900Z,11.35
2023-04-21T04:33:18.781Z,11.40
2023-04-21T04:35:47.702Z,10.05
2023-04-21T04:38:15.798Z,11.10
2023-04-21T04:40:43.676Z,10.02
2023-04-21T04:43:12.887Z,10.73
2023-04-21T04:45:40.729Z,9.85
2023-04-21T04:48:08.607Z,10.23
2023-04-21T04:50:36.839Z,10.57
2023-04-21T04:53:04.713Z,12.13
2023-04-21T04:55:32.528Z,10.15
2023-04-21T04:58:01.807Z,10.35
2023-04-21T05:00:31.871Z,10.38
2023-04-21T05:02:59.834Z,11.07
2023-04-21T05:05:27.657Z,10.75
2023-04-21T05:07:55.631Z,9.45
2023-04-21T05:10:23.573Z,11.00
2023-04-21T05:12:51.787Z,9.88
2023-04-21T05:15:19.894Z,9.20
2023-04-21T05:17:49.308Z,10.02
2023-04-21T05:20:17.220Z,10.35
2023-04-21T05:22:45.243Z,11.13
2023-04-21T05:25:15.141Z,10.55
2023-04-21T05:27:43.233Z,11.02
2023-04-21T05:30:11.902Z,10.40
2023-04-21T05:32:39.892Z,9.82
2023-04-21T05:35:09.775Z,10.23
2023-04-21T05:37:37.776Z,10.07
2023-04-21T05:40:06.759Z,9.00
2023-04-21T05:42:34.676Z,10.13
2023-04-21T05:45:02.566Z,10.48
2023-04-21T05:47:30.541Z,10.30
2023-04-21T05:49:58.387Z,9.75
2023-04-21T05:52:27.730Z,10.13
2023-04-21T05:54:55.626Z,9.40
2023-04-21T05:57:23.502Z,10.50
2023-04-21T05:59:51.565Z,10.80
2023-04-21T06:02:19.581Z,10.30
2023-04-21T06:04:47.979Z,9.85
2023-04-21T06:07:18.749Z,9.65
2023-04-21T06:09:51.158Z,9.85
2023-04-21T06:12:18.977Z,10.40
2023-04-21T06:14:47.976Z,9.73
2023-04-21T06:17:19.393Z,9.93
2023-04-21T06:19:53.482Z,10.40
2023-04-21T06:22:22.234Z,10.10
2023-04-21T06:24:52.473Z,9.27
2023-04-21T06:27:20.682Z,8.85
2023-04-21T06:29:49.009Z,9.45
2023-04-21T06:32:17.385Z,8.75
2023-04-21T06:34:45.305Z,9.60
2023-04-21T06:37:13.379Z,8.82
2023-04-21T06:39:41.104Z,9.88
2023-04-21T06:42:10.286Z,9.73
2023-04-21T06:44:43.664Z,8.60
2023-04-21T06:47:11.489Z,9.02
2023-04-21T06:49:39.608Z,9.20
2023-04-21T06:52:07.922Z,9.68
2023-04-21T06:54:35.913Z,8.85
2023-04-21T06:57:03.819Z,8.93
2023-04-21T06:59:33.132Z,9.40
2023-04-21T07:02:01.563Z,8.88
2023-04-21T07:04:32.065Z,10.10
2023-04-21T07:07:02.989Z,9.10
2023-04-21T07:09:33.680Z,9.05
2023-04-21T07:12:02.742Z,9.30
2023-04-21T07:14:30.911Z,9.35
2023-04-21T07:17:00.313Z,9.45
2023-04-21T07:19:28.410Z,10.40
2023-04-21T07:21:56.642Z,8.60
2023-04-21T07:24:24.488Z,9.60
2023-04-21T07:26:52.389Z,9.45
2023-04-21T07:29:20.458Z,9.73
2023-04-21T07:31:48.516Z,9.52
2023-04-21T07:34:17.801Z,9.48
2023-04-21T07:36:45.683Z,9.50
2023-04-21T07:39:13.633Z,9.43
2023-04-21T07:41:42.698Z,10.18
2023-04-21T07:44:10.917Z,10.60
2023-04-21T07:46:38.914Z,9.32
2023-04-21T07:49:07.177Z,9.57
2023-04-21T07:51:36.485Z,9.00
2023-04-21T07:54:04.652Z,10.27
2023-04-21T07:56:32.517Z,9.75
2023-04-21T07:59:00.687Z,10.60
2023-04-21T08:01:28.909Z,8.75
2023-04-21T08:03:57.082Z,9.38
2023-04-21T08:06:25.359Z,11.32
2023-04-21T08:08:56.032Z,8.90
2023-04-21T08:11:23.912Z,9.35
2023-04-21T08:13:51.795Z,9.35
2023-04-21T08:16:19.707Z,9.70
2023-04-21T08:18:47.599Z,9.95
2023-04-21T08:21:15.710Z,9.07
2023-04-21T08:23:43.480Z,10.30
2023-04-21T08:26:13.302Z,9.50
2023-04-21T08:28:41.389Z,9.02
2023-04-21T08:31:09.223Z,9.23
2023-04-21T08:33:43.889Z,10.20
2023-04-21T08:36:28.260Z,9.65
2023-04-21T08:38:57.820Z,9.68
2023-04-21T08:41:28.364Z,9.40
2023-04-21T08:43:56.692Z,9.15
2023-04-21T08:46:25.709Z,8.38
2023-04-21T08:48:55.282Z,9.20
2023-04-21T08:51:24.989Z,8.70
2023-04-21T08:53:52.901Z,8.77
2023-04-21T08:56:20.755Z,9.40
2023-04-21T08:58:50.129Z,10.02
2023-04-21T09:01:18.192Z,9.57
2023-04-21T09:06:14.310Z,8.48
2023-04-21T09:08:44.696Z,9.82
2023-04-21T09:11:15.726Z,8.15
2023-04-21T09:13:44.692Z,9.00
2023-04-21T09:16:22.547Z,9.02
2023-04-21T09:18:51.581Z,8.75
2023-04-21T09:21:21.175Z,9.05
2023-04-21T09:23:50.595Z,10.25
2023-04-21T09:26:20.296Z,8.98
2023-04-21T09:28:49.715Z,8.32
2023-04-21T09:31:20.918Z,8.82
2023-04-21T09:36:22.345Z,8.50
2023-04-21T09:41:33.175Z,8.48
2023-04-21T09:44:01.586Z,9.40
2023-04-21T09:46:34.676Z,9.13
2023-04-21T09:49:03.920Z,9.15
2023-04-21T09:51:56.216Z,9.00
2023-04-21T09:54:29.560Z,8.43
2023-04-21T09:57:01.797Z,9.00
2023-04-21T09:59:33.679Z,8.73
2023-04-21T10:02:07.161Z,9.90
2023-04-21T10:04:37.814Z,8.70
2023-04-21T10:07:07.464Z,11.90
2023-04-21T10:09:41.446Z,7.90
2023-04-21T10:12:14.484Z,9.13
2023-04-21T10:14:42.591Z,8.68
2023-04-21T10:17:12.311Z,8.15
2023-04-21T10:19:50.480Z,7.65
2023-04-21T10:22:29.176Z,8.50
2023-04-21T10:24:58.401Z,8.20
2023-04-21T10:27:34.066Z,7.68
2023-04-21T10:30:02.751Z,7.78
2023-04-21T10:32:42.717Z,9.43
2023-04-21T10:35:11.880Z,7.38
2023-04-21T10:37:42.306Z,8.30
2023-04-21T10:40:43.787Z,8.63
2023-04-21T10:43:48.494Z,8.32
2023-04-21T10:46:35.986Z,7.22
2023-04-21T10:49:09.564Z,7.07
2023-04-21T10:54:26.937Z,8.10
2023-04-21T10:56:56.237Z,7.68
2023-04-21T10:59:25.060Z,7.40
2023-04-21T11:01:53.330Z,7.53
2023-04-21T11:04:24.227Z,6.57
2023-04-21T11:07:07.884Z,6.93
2023-04-21T11:09:36.057Z,8.00
2023-04-21T11:12:07.424Z,8.10
2023-04-21T11:14:37.197Z,7.68
2023-04-21T11:17:05.889Z,6.38
2023-04-21T11:19:35.319Z,6.03
2023-04-21T11:22:03.329Z,6.07
2023-04-21T11:24:31.970Z,5.80
2023-04-21T11:27:02.110Z,5.60
2023-04-21T11:29:30.817Z,6.22
2023-04-21T11:31:59.325Z,5.70
2023-04-21T11:34:27.898Z,5.93
2023-04-21T11:36:57.671Z,5.07
2023-04-21T11:39:25.774Z,6.20
2023-04-21T11:41:53.816Z,5.57
2023-04-21T11:44:35.488Z,5.00
2023-04-21T11:47:14.602Z,5.95
2023-04-21T11:49:47.702Z,5.70
2023-04-21T11:52:28.581Z,5.25
2023-04-21T11:54:59.017Z,6.05
2023-04-21T11:57:28.662Z,6.57
2023-04-21T11:59:59.695Z,5.95
2023-04-21T12:02:30.184Z,6.63
2023-04-21T12:05:00.719Z,6.50
2023-04-21T12:07:31.120Z,6.18
2023-04-21T12:09:59.874Z,5.20
2023-04-21T12:13:12.654Z,5.10
2023-04-21T12:15:40.634Z,5.90
2023-04-21T12:18:14.428Z,5.50
2023-04-21T12:20:51.619Z,5.65
2023-04-21T12:23:21.391Z,5.90
2023-04-21T12:25:50.055Z,5.40
2023-04-21T12:28:18.337Z,5.60
2023-04-21T12:30:46.339Z,5.53
2023-04-21T12:33:39.125Z,6.55
2023-04-21T12:36:07.391Z,5.68
2023-04-21T12:38:37.173Z,5.50
2023-04-21T12:41:06.042Z,5.15
2023-04-21T12:43:33.908Z,4.95
2023-04-21T12:46:02.514Z,4.88
2023-04-21T12:48:31.202Z,5.85
2023-04-21T12:50:59.009Z,4.43
2023-04-21T12:53:28.641Z,5.13
2023-04-21T12:56:04.471Z,5.60
2023-04-21T12:58:33.032Z,6.00
2023-04-21T13:01:00.845Z,5.57
2023-04-21T13:03:28.976Z,4.28
2023-04-21T13:05:57.860Z,4.50
2023-04-21T13:08:25.937Z,4.57
2023-04-21T13:10:55.287Z,4.38
2023-04-21T13:13:26.557Z,4.20
2023-04-21T13:15:54.431Z,3.72
2023-04-21T13:18:22.391Z,3.67
2023-04-21T13:20:50.644Z,4.03
2023-04-21T13:23:18.479Z,4.40
2023-04-21T13:25:46.392Z,3.65
2023-04-21T13:28:14.930Z,3.38
2023-04-21T13:30:44.642Z,3.60
2023-04-21T13:33:12.697Z,3.78
2023-04-21T13:35:40.692Z,4.65
2023-04-21T13:38:08.739Z,3.92
2023-04-21T13:40:36.847Z,2.95
2023-04-21T13:43:05.280Z,4.47
2023-04-21T13:45:33.085Z,2.95
2023-04-21T13:48:02.803Z,3.13
2023-04-21T13:50:30.856Z,4.22
2023-04-21T13:52:59.197Z,3.70
2023-04-21T13:55:27.456Z,2.85
2023-04-21T13:57:55.946Z,3.95
2023-04-21T14:00:24.025Z,4.88
2023-04-21T14:02:53.093Z,3.65
2023-04-21T14:05:22.854Z,5.22
2023-04-21T14:07:50.772Z,3.22
2023-04-21T14:10:18.543Z,3.30
2023-04-21T14:12:47.961Z,3.30
2023-04-21T14:15:16.294Z,4.10
2023-04-21T14:17:44.176Z,3.53
2023-04-21T14:20:12.919Z,4.10
2023-04-21T14:22:42.112Z,3.53
2023-04-21T14:25:10.434Z,3.03
2023-04-21T14:27:38.262Z,2.92
2023-04-21T14:30:07.255Z,3.22
2023-04-21T14:32:35.097Z,3.80
2023-04-21T14:35:03.886Z,3.20
2023-04-21T14:37:31.740Z,3.30
2023-04-21T14:40:01.672Z,3.92
2023-04-21T14:42:29.696Z,3.40
2023-04-21T14:44:57.805Z,3.03
2023-04-21T14:47:26.064Z,3.53
2023-04-21T14:49:56.482Z,3.40
2023-04-21T14:52:26.759Z,3.25
2023-04-21T14:54:54.923Z,3.75
2023-04-21T14:57:24.179Z,3.50
2023-04-21T14:59:53.351Z,3.97
2023-04-21T15:02:22.349Z,3.97
2023-04-21T15:04:50.858Z,3.58
2023-04-21T15:07:23.912Z,4.10
2023-04-21T15:12:20.160Z,3.38
2023-04-21T15:14:49.354Z,3.25
2023-04-21T15:17:17.195Z,4.15
2023-04-21T15:19:45.175Z,3.30
2023-04-21T15:22:15.511Z,3.38
2023-04-21T15:24:43.654Z,3.95
2023-04-21T15:27:11.532Z,4.90
2023-04-21T15:29:39.418Z,3.58
2023-04-21T15:32:08.838Z,3.30
2023-04-21T15:34:37.212Z,3.63
2023-04-21T15:37:05.351Z,3.88
2023-04-21T15:39:33.411Z,4.03
2023-04-21T15:42:01.644Z,3.88
2023-04-21T15:44:29.482Z,3.47
2023-04-21T15:46:57.621Z,4.10
2023-04-21T15:49:27.250Z,3.92
2023-04-21T15:51:55.411Z,3.90
2023-04-21T15:54:23.647Z,3.75
2023-04-21T15:56:51.426Z,3.85
2023-04-21T15:59:19.296Z,3.92
2023-04-21T16:01:47.236Z,4.00
2023-04-21T16:04:15.546Z,4.68
2023-04-21T16:06:44.831Z,3.70
2023-04-21T16:09:12.778Z,5.40
2023-04-21T16:11:40.671Z,5.35
2023-04-21T16:14:09.380Z,4.50
2023-04-21T16:16:37.779Z,4.95
2023-04-21T16:19:05.777Z,4.38
2023-04-21T16:21:33.741Z,4.30
2023-04-21T16:24:05.974Z,4.45
2023-04-21T16:26:35.722Z,4.53
2023-04-21T16:29:03.819Z,4.50
2023-04-21T16:31:32.397Z,4.40
2023-04-21T16:34:00.616Z,4.05
2023-04-21T16:36:31.155Z,4.20
2023-04-21T16:38:59.366Z,4.97
2023-04-21T16:41:30.314Z,4.70
2023-04-21T16:43:58.431Z,5.28
2023-04-21T16:46:27.001Z,4.97
2023-04-21T16:48:54.907Z,5.70
2023-04-21T16:51:23.055Z,4.70
2023-04-21T16:53:50.965Z,4.25
2023-04-21T16:56:20.565Z,4.72
2023-04-21T16:58:50.951Z,4.65
2023-04-21T17:01:21.436Z,4.43
2023-04-21T17:03:49.340Z,4.93
2023-04-21T17:06:20.887Z,4.57
2023-04-21T17:08:49.067Z,4.10
2023-04-21T17:11:17.556Z,4.30
2023-04-21T17:13:45.496Z,4.45
2023-04-21T17:16:14.726Z,6.45
2023-04-21T17:18:42.595Z,4.30
2023-04-21T17:21:10.342Z,4.40
2023-04-21T17:23:38.114Z,4.18
2023-04-21T17:26:06.501Z,4.13
2023-04-21T17:28:34.456Z,4.88
2023-04-21T17:31:14.483Z,4.88
2023-04-21T17:33:45.169Z,4.95
2023-04-21T17:36:13.144Z,4.25
2023-04-21T17:38:42.710Z,4.32
2023-04-21T17:41:10.767Z,4.03
2023-04-21T17:43:38.564Z,4.80
2023-04-21T17:46:07.592Z,4.45
2023-04-21T17:48:35.518Z,4.32
2023-04-21T17:51:04.926Z,4.18
2023-04-21T17:53:32.961Z,5.20
2023-04-21T17:56:01.252Z,4.55
2023-04-21T17:58:29.612Z,4.10
2023-04-21T18:00:57.885Z,5.22
2023-04-21T18:03:27.379Z,3.97
2023-04-21T18:05:55.687Z,4.88
2023-04-21T18:08:24.921Z,4.30
2023-04-21T18:10:52.872Z,3.92
2023-04-21T18:13:20.783Z,3.95
2023-04-21T18:15:48.748Z,4.60
2023-04-21T18:18:19.498Z,4.25
2023-04-21T18:20:47.381Z,3.92
2023-04-21T18:23:15.256Z,4.68
2023-04-21T18:25:44.391Z,4.05
2023-04-21T18:28:12.863Z,4.40
2023-04-21T18:30:41.314Z,4.97
2023-04-21T18:33:09.677Z,4.07
2023-04-21T18:35:37.630Z,4.40
2023-04-21T18:38:07.816Z,4.38
2023-04-21T18:40:37.074Z,5.13
2023-04-21T18:43:06.567Z,4.70
2023-04-21T18:45:34.617Z,5.32
2023-04-21T18:48:02.576Z,5.30
2023-04-21T18:50:32.274Z,5.00
2023-04-21T18:53:00.036Z,4.93
2023-04-21T18:55:27.769Z,4.93
2023-04-21T18:57:55.652Z,4.70
2023-04-21T19:00:25.799Z,5.38
2023-04-21T19:02:54.090Z,5.45
2023-04-21T19:05:22.556Z,5.55
2023-04-21T19:07:50.350Z,4.53
2023-04-21T19:10:18.624Z,4.55
2023-04-21T19:12:46.451Z,4.50
2023-04-21T19:15:14.492Z,5.10
2023-04-21T19:17:43.732Z,5.80
2023-04-21T19:20:12.818Z,5.65
2023-04-21T19:22:40.630Z,5.65
2023-04-21T19:25:08.998Z,5.70
2023-04-21T19:27:37.050Z,5.55
2023-04-21T19:30:06.066Z,5.47
2023-04-21T19:32:34.456Z,7.80
2023-04-21T19:35:04.631Z,11.98
2023-04-21T19:37:34.967Z,8.77
2023-04-21T19:40:03.412Z,9.02
2023-04-21T19:42:31.838Z,6.53
2023-04-21T19:44:59.540Z,13.98
2023-04-21T19:47:27.550Z,6.60
2023-04-21T19:49:55.798Z,6.22
2023-04-21T19:52:25.088Z,7.20
2023-04-21T19:54:52.810Z,6.15
2023-04-21T19:57:20.697Z,5.95
2023-04-21T19:59:49.043Z,6.13
2023-04-21T20:02:17.224Z,6.65
2023-04-21T20:04:45.172Z,6.85
2023-04-21T20:07:13.173Z,6.32
2023-04-21T20:09:42.441Z,6.07
2023-04-21T20:12:10.456Z,7.43
2023-04-21T20:14:38.853Z,5.90
2023-04-21T20:17:06.712Z,7.28
2023-04-21T20:19:35.843Z,6.72
2023-04-21T20:22:04.266Z,7.65
2023-04-21T20:24:32.141Z,6.47
2023-04-21T20:27:01.930Z,9.02
2023-04-21T20:29:29.786Z,7.15
2023-04-21T20:31:57.988Z,7.00
2023-04-21T20:34:25.964Z,7.38
2023-04-21T20:36:54.809Z,6.32
2023-04-21T20:39:23.167Z,7.43
2023-04-21T20:42:00.967Z,8.18
2023-04-21T20:44:38.695Z,11.68
2023-04-21T20:47:08.258Z,7.10
2023-04-21T20:49:36.564Z,6.00
2023-04-21T20:52:04.455Z,5.63
2023-04-21T20:54:34.524Z,6.65
2023-04-21T20:57:02.928Z,7.20
2023-04-21T20:59:30.673Z,5.78
2023-04-21T21:01:59.974Z,5.88
2023-04-21T21:04:27.949Z,5.38
2023-04-21T21:06:56.249Z,5.47
2023-04-21T21:09:24.265Z,4.57
2023-04-21T21:11:52.391Z,5.40
2023-04-21T21:14:20.300Z,6.05
2023-04-21T21:16:48.209Z,5.70
2023-04-21T21:19:17.457Z,6.53
2023-04-21T21:21:45.973Z,5.28
2023-04-21T21:24:13.849Z,6.05
2023-04-21T21:26:42.862Z,5.45
2023-04-21T21:29:13.490Z,5.82
2023-04-21T21:31:41.491Z,5.95
2023-04-21T21:34:09.306Z,6.53
2023-04-21T21:36:38.496Z,7.05
2023-04-21T21:39:07.806Z,6.30
2023-04-21T21:41:37.580Z,6.43
2023-04-21T21:44:06.541Z,7.95
2023-04-21T21:46:34.373Z,7.15
2023-04-21T21:49:02.155Z,7.90
2023-04-21T21:51:30.035Z,7.30
2023-04-21T21:53:59.443Z,8.18
2023-04-21T21:56:27.602Z,7.85
2023-04-21T21:58:55.752Z,10.27
2023-04-21T22:01:24.192Z,8.15
2023-04-21T22:03:54.167Z,8.07
2023-04-21T22:06:24.385Z,7.95
2023-04-21T22:08:52.717Z,7.70
2023-04-21T22:11:21.979Z,9.10
2023-04-21T22:13:49.832Z,9.38
2023-04-21T22:16:18.594Z,8.15
2023-04-21T22:18:47.213Z,9.25
2023-04-21T22:21:15.092Z,9.30
2023-04-21T22:23:42.964Z,9.00
2023-04-21T22:26:10.752Z,8.40
2023-04-21T22:28:41.670Z,9.00
2023-04-21T22:31:10.276Z,8.98
2023-04-21T22:33:38.626Z,8.88
2023-04-21T22:36:09.715Z,8.57
2023-04-21T22:38:38.339Z,7.97
2023-04-21T22:41:06.528Z,8.57
2023-04-21T22:43:34.329Z,7.82
2023-04-21T22:46:03.489Z,10.02
2023-04-21T22:48:32.771Z,8.00
2023-04-21T22:51:01.433Z,7.47
2023-04-21T22:53:29.276Z,8.77
2023-04-21T22:55:57.332Z,7.72
2023-04-21T22:58:26.072Z,8.00
2023-04-21T23:00:53.947Z,9.52
2023-04-21T23:03:23.769Z,7.85
2023-04-21T23:05:51.924Z,8.90
2023-04-21T23:08:19.706Z,9.90
2023-04-21T23:10:47.535Z,8.35
2023-04-21T23:13:15.577Z,8.23
2023-04-21T23:15:43.321Z,8.63
2023-04-21T23:18:11.319Z,8.55
2023-04-21T23:20:40.746Z,8.77
2023-04-21T23:23:08.633Z,7.63
2023-04-21T23:25:36.367Z,8.18
2023-04-21T23:28:04.255Z,8.02
2023-04-21T23:30:32.044Z,7.55
2023-04-21T23:32:59.922Z,7.45
2023-04-21T23:35:28.136Z,7.10
2023-04-21T23:37:57.911Z,6.53
2023-04-21T23:40:25.777Z,6.43
2023-04-21T23:42:53.621Z,7.07
2023-04-21T23:45:21.622Z,6.70
2023-04-21T23:47:49.437Z,6.60
2023-04-21T23:50:17.335Z,6.78
2023-04-21T23:52:45.115Z,6.10
2023-04-21T23:55:14.355Z,6.40
2023-04-21T23:57:44.514Z,6.38
